sensor_id;sensor_type;location;lat;lon;timestamp;temperature;humidity
19892;DHT22;10108;50.142;8.724;2023-02-28T00:00:31;3.30;99.90
19892;DHT22;10108;50.142;8.724;2023-02-28T00:02:58;3.30;99.90
19892;DHT22;10108;50.142;8.724;2023-02-28T00:05:25;3.30;99.90
19892;DHT22;10108;50.142;8.724;2023-02-28T00:07:52;3.30;99.90
19892;DHT22;10108;50.142;8.724;2023-02-28T00:10:26;3.30;99.90
19892;DHT22;10108;50.142;8.724;2023-02-28T00:12:55;3.30;99.90
19892;DHT22;10108;50.142;8.724;2023-02-28T00:15:23;3.30;99.90
19892;DHT22;10108;50.142;8.724;2023-02-28T00:17:50;3.20;99.90
19892;DHT22;10108;50.142;8.724;2023-02-28T00:20:16;3.20;99.90
19892;DHT22;10108;50.142;8.724;2023-02-28T00:22:47;3.20;99.90
19892;DHT22;10108;50.142;8.724;2023-02-28T00:25:17;3.20;99.90
19892;DHT22;10108;50.142;8.724;2023-02-28T00:27:44;3.20;99.90
19892;DHT22;10108;50.142;8.724;2023-02-28T00:30:12;3.20;99.90
19892;DHT22;10108;50.142;8.724;2023-02-28T00:32:39;3.20;99.90
19892;DHT22;10108;50.142;8.724;2023-02-28T00:35:07;3.10;99.90
19892;DHT22;10108;50.142;8.724;2023-02-28T00:37:34;3.20;99.90
19892;DHT22;10108;50.142;8.724;2023-02-28T00:40:00;3.10;99.90
19892;DHT22;10108;50.142;8.724;2023-02-28T00:42:27;3.10;99.90
19892;DHT22;10108;50.142;8.724;2023-02-28T00:44:53;3.10;99.90
19892;DHT22;10108;50.142;8.724;2023-02-28T00:47:20;3.10;99.90
19892;DHT22;10108;50.142;8.724;2023-02-28T00:49:46;3.10;99.90
19892;DHT22;10108;50.142;8.724;2023-02-28T00:52:12;3.10;99.90
19892;DHT22;10108;50.142;8.724;2023-02-28T00:54:38;3.10;99.90
19892;DHT22;10108;50.142;8.724;2023-02-28T00:57:04;3.10;99.90
19892;DHT22;10108;50.142;8.724;2023-02-28T00:59:31;3.10;99.90
19892;DHT22;10108;50.142;8.724;2023-02-28T01:01:57;3.10;99.90
19892;DHT22;10108;50.142;8.724;2023-02-28T01:04:23;3.00;99.90
19892;DHT22;10108;50.142;8.724;2023-02-28T01:06:49;2.90;99.90
19892;DHT22;10108;50.142;8.724;2023-02-28T01:09:16;3.00;99.90
19892;DHT22;10108;50.142;8.724;2023-02-28T01:11:42;2.90;99.90
19892;DHT22;10108;50.142;8.724;2023-02-28T01:14:14;3.00;99.90
19892;DHT22;10108;50.142;8.724;2023-02-28T01:16:40;3.00;99.90
19892;DHT22;10108;50.142;8.724;2023-02-28T01:19:07;3.00;99.90
19892;DHT22;10108;50.142;8.724;2023-02-28T01:21:33;2.90;99.90
19892;DHT22;10108;50.142;8.724;2023-02-28T01:24:01;3.00;99.90
19892;DHT22;10108;50.142;8.724;2023-02-28T01:26:27;2.90;99.90
19892;DHT22;10108;50.142;8.724;2023-02-28T01:28:53;2.90;99.90
19892;DHT22;10108;50.142;8.724;2023-02-28T01:31:21;2.90;99.90
19892;DHT22;10108;50.142;8.724;2023-02-28T01:33:48;2.90;99.90
19892;DHT22;10108;50.142;8.724;2023-02-28T01:36:20;2.80;99.90
19892;DHT22;10108;50.142;8.724;2023-02-28T01:38:47;2.90;99.90
19892;DHT22;10108;50.142;8.724;2023-02-28T01:41:19;2.90;99.90
19892;DHT22;10108;50.142;8.724;2023-02-28T01:46:12;2.90;99.90
19892;DHT22;10108;50.142;8.724;2023-02-28T01:48:48;3.00;99.90
19892;DHT22;10108;50.142;8.724;2023-02-28T01:51:21;3.00;99.90
19892;DHT22;10108;50.142;8.724;2023-02-28T01:53:51;2.90;99.90
19892;DHT22;10108;50.142;8.724;2023-02-28T01:56:24;2.90;99.90
19892;DHT22;10108;50.142;8.724;2023-02-28T01:58:52;2.90;99.90
19892;DHT22;10108;50.142;8.724;2023-02-28T02:01:20;2.80;99.90
19892;DHT22;10108;50.142;8.724;2023-02-28T02:03:52;2.90;99.90
19892;DHT22;10108;50.142;8.724;2023-02-28T02:06:34;2.80;99.90
19892;DHT22;10108;50.142;8.724;2023-02-28T02:09:01;2.80;99.90
19892;DHT22;10108;50.142;8.724;2023-02-28T02:11:28;2.80;99.90
19892;DHT22;10108;50.142;8.724;2023-02-28T02:33:13;2.80;99.90
19892;DHT22;10108;50.142;8.724;2023-02-28T02:35:55;2.70;99.90
19892;DHT22;10108;50.142;8.724;2023-02-28T02:38:52;2.70;99.90
19892;DHT22;10108;50.142;8.724;2023-02-28T02:46:44;2.70;99.90
19892;DHT22;10108;50.142;8.724;2023-02-28T02:54:18;2.60;99.90
19892;DHT22;10108;50.142;8.724;2023-02-28T02:56:47;2.60;99.90
19892;DHT22;10108;50.142;8.724;2023-02-28T02:59:17;2.60;99.90
19892;DHT22;10108;50.142;8.724;2023-02-28T03:01:57;2.60;99.90
19892;DHT22;10108;50.142;8.724;2023-02-28T03:04:27;2.60;99.90
19892;DHT22;10108;50.142;8.724;2023-02-28T03:06:56;2.60;99.90
19892;DHT22;10108;50.142;8.724;2023-02-28T03:09:23;2.60;99.90
19892;DHT22;10108;50.142;8.724;2023-02-28T03:11:51;2.50;99.90
19892;DHT22;10108;50.142;8.724;2023-02-28T03:17:18;2.50;99.90
19892;DHT22;10108;50.142;8.724;2023-02-28T03:20:01;2.50;99.90
19892;DHT22;10108;50.142;8.724;2023-02-28T03:22:43;2.50;99.90
19892;DHT22;10108;50.142;8.724;2023-02-28T03:25:27;2.50;99.90
19892;DHT22;10108;50.142;8.724;2023-02-28T03:31:07;2.50;99.90
19892;DHT22;10108;50.142;8.724;2023-02-28T03:33:39;2.40;99.90
19892;DHT22;10108;50.142;8.724;2023-02-28T03:36:15;2.40;99.90
19892;DHT22;10108;50.142;8.724;2023-02-28T03:41:26;2.40;99.90
19892;DHT22;10108;50.142;8.724;2023-02-28T03:44:13;2.40;99.90
19892;DHT22;10108;50.142;8.724;2023-02-28T03:46:56;2.40;99.90
19892;DHT22;10108;50.142;8.724;2023-02-28T03:49:26;2.40;99.90
19892;DHT22;10108;50.142;8.724;2023-02-28T03:51:56;2.40;99.90
19892;DHT22;10108;50.142;8.724;2023-02-28T03:54:45;2.40;99.90
19892;DHT22;10108;50.142;8.724;2023-02-28T03:57:19;2.40;99.90
19892;DHT22;10108;50.142;8.724;2023-02-28T03:59:52;2.30;99.90
19892;DHT22;10108;50.142;8.724;2023-02-28T04:02:19;2.30;99.90
19892;DHT22;10108;50.142;8.724;2023-02-28T04:04:45;2.30;99.90
19892;DHT22;10108;50.142;8.724;2023-02-28T04:07:14;2.30;99.90
19892;DHT22;10108;50.142;8.724;2023-02-28T04:09:41;2.40;99.90
19892;DHT22;10108;50.142;8.724;2023-02-28T04:12:08;2.30;99.90
19892;DHT22;10108;50.142;8.724;2023-02-28T04:14:34;2.20;99.90
19892;DHT22;10108;50.142;8.724;2023-02-28T04:17:00;2.20;99.90
19892;DHT22;10108;50.142;8.724;2023-02-28T04:19:27;2.10;99.90
19892;DHT22;10108;50.142;8.724;2023-02-28T04:21:53;2.10;99.90
19892;DHT22;10108;50.142;8.724;2023-02-28T04:24:25;2.10;99.90
19892;DHT22;10108;50.142;8.724;2023-02-28T04:26:53;2.10;99.90
19892;DHT22;10108;50.142;8.724;2023-02-28T04:29:29;2.10;99.90
19892;DHT22;10108;50.142;8.724;2023-02-28T04:31:56;2.20;99.90
19892;DHT22;10108;50.142;8.724;2023-02-28T04:34:26;2.20;99.90
19892;DHT22;10108;50.142;8.724;2023-02-28T04:36:53;2.20;99.90
19892;DHT22;10108;50.142;8.724;2023-02-28T04:39:21;2.20;99.90
19892;DHT22;10108;50.142;8.724;2023-02-28T04:41:48;2.20;99.90
19892;DHT22;10108;50.142;8.724;2023-02-28T04:44:15;2.30;99.90
19892;DHT22;10108;50.142;8.724;2023-02-28T04:46:42;2.30;99.90
19892;DHT22;10108;50.142;8.724;2023-02-28T04:49:12;2.30;99.90
19892;DHT22;10108;50.142;8.724;2023-02-28T04:51:39;2.20;99.90
19892;DHT22;10108;50.142;8.724;2023-02-28T04:54:05;2.20;99.90
19892;DHT22;10108;50.142;8.724;2023-02-28T04:56:31;2.20;99.90
19892;DHT22;10108;50.142;8.724;2023-02-28T04:58:58;2.20;99.90
19892;DHT22;10108;50.142;8.724;2023-02-28T05:01:31;2.30;99.90
19892;DHT22;10108;50.142;8.724;2023-02-28T05:03:59;2.30;99.90
19892;DHT22;10108;50.142;8.724;2023-02-28T05:06:28;2.30;99.90
19892;DHT22;10108;50.142;8.724;2023-02-28T05:08:54;2.30;99.90
19892;DHT22;10108;50.142;8.724;2023-02-28T05:13:48;2.30;99.90
19892;DHT22;10108;50.142;8.724;2023-02-28T05:16:15;2.30;99.90
19892;DHT22;10108;50.142;8.724;2023-02-28T05:18:41;2.30;99.90
19892;DHT22;10108;50.142;8.724;2023-02-28T05:21:31;2.30;99.90
19892;DHT22;10108;50.142;8.724;2023-02-28T05:24:02;2.40;99.90
19892;DHT22;10108;50.142;8.724;2023-02-28T05:26:29;2.30;99.90
19892;DHT22;10108;50.142;8.724;2023-02-28T05:28:56;2.20;99.90
19892;DHT22;10108;50.142;8.724;2023-02-28T05:31:22;2.30;99.90
19892;DHT22;10108;50.142;8.724;2023-02-28T05:33:48;2.20;99.90
19892;DHT22;10108;50.142;8.724;2023-02-28T05:36:15;2.20;99.90
19892;DHT22;10108;50.142;8.724;2023-02-28T05:38:41;2.20;99.90
19892;DHT22;10108;50.142;8.724;2023-02-28T05:41:10;2.20;99.90
19892;DHT22;10108;50.142;8.724;2023-02-28T05:43:37;2.20;99.90
19892;DHT22;10108;50.142;8.724;2023-02-28T05:46:08;2.30;99.90
19892;DHT22;10108;50.142;8.724;2023-02-28T05:48:35;2.20;99.90
19892;DHT22;10108;50.142;8.724;2023-02-28T05:51:02;2.30;99.90
19892;DHT22;10108;50.142;8.724;2023-02-28T05:53:29;2.30;99.90
19892;DHT22;10108;50.142;8.724;2023-02-28T05:55:55;2.30;99.90
19892;DHT22;10108;50.142;8.724;2023-02-28T05:58:22;2.30;99.90
19892;DHT22;10108;50.142;8.724;2023-02-28T06:00:48;2.20;99.90
19892;DHT22;10108;50.142;8.724;2023-02-28T06:03:15;2.20;99.90
19892;DHT22;10108;50.142;8.724;2023-02-28T06:05:41;2.20;99.90
19892;DHT22;10108;50.142;8.724;2023-02-28T06:08:07;2.20;99.90
19892;DHT22;10108;50.142;8.724;2023-02-28T06:10:36;2.30;99.90
19892;DHT22;10108;50.142;8.724;2023-02-28T06:13:03;2.30;99.90
19892;DHT22;10108;50.142;8.724;2023-02-28T06:15:30;2.20;99.90
19892;DHT22;10108;50.142;8.724;2023-02-28T06:17:57;2.20;99.90
19892;DHT22;10108;50.142;8.724;2023-02-28T06:20:24;2.20;99.90
19892;DHT22;10108;50.142;8.724;2023-02-28T06:22:50;2.20;99.90
19892;DHT22;10108;50.142;8.724;2023-02-28T06:25:17;2.10;99.90
19892;DHT22;10108;50.142;8.724;2023-02-28T06:27:44;2.20;99.90
19892;DHT22;10108;50.142;8.724;2023-02-28T06:30:11;2.20;99.90
19892;DHT22;10108;50.142;8.724;2023-02-28T06:32:37;2.20;99.90
19892;DHT22;10108;50.142;8.724;2023-02-28T06:35:04;2.10;99.90
19892;DHT22;10108;50.142;8.724;2023-02-28T06:37:31;2.20;99.90
19892;DHT22;10108;50.142;8.724;2023-02-28T06:39:57;2.20;99.90
19892;DHT22;10108;50.142;8.724;2023-02-28T06:42:24;2.20;99.90
19892;DHT22;10108;50.142;8.724;2023-02-28T06:44:55;2.20;99.90
19892;DHT22;10108;50.142;8.724;2023-02-28T06:47:22;2.20;99.90
19892;DHT22;10108;50.142;8.724;2023-02-28T06:49:48;2.20;99.90
19892;DHT22;10108;50.142;8.724;2023-02-28T06:52:15;2.20;99.90
19892;DHT22;10108;50.142;8.724;2023-02-28T06:54:41;2.20;99.90
19892;DHT22;10108;50.142;8.724;2023-02-28T06:57:08;2.30;99.90
19892;DHT22;10108;50.142;8.724;2023-02-28T06:59:34;2.30;99.90
19892;DHT22;10108;50.142;8.724;2023-02-28T07:02:01;2.40;99.90
19892;DHT22;10108;50.142;8.724;2023-02-28T07:04:28;2.40;99.90
19892;DHT22;10108;50.142;8.724;2023-02-28T07:06:55;2.50;99.90
19892;DHT22;10108;50.142;8.724;2023-02-28T07:09:23;2.50;99.90
19892;DHT22;10108;50.142;8.724;2023-02-28T07:11:49;2.50;99.90
19892;DHT22;10108;50.142;8.724;2023-02-28T07:14:15;2.50;99.90
19892;DHT22;10108;50.142;8.724;2023-02-28T07:16:41;2.50;99.90
19892;DHT22;10108;50.142;8.724;2023-02-28T07:19:07;2.60;99.90
19892;DHT22;10108;50.142;8.724;2023-02-28T07:21:34;2.50;99.90
19892;DHT22;10108;50.142;8.724;2023-02-28T07:24:00;2.60;99.90
19892;DHT22;10108;50.142;8.724;2023-02-28T07:26:26;2.60;99.90
19892;DHT22;10108;50.142;8.724;2023-02-28T07:28:52;2.70;99.90
19892;DHT22;10108;50.142;8.724;2023-02-28T07:31:18;2.70;99.90
19892;DHT22;10108;50.142;8.724;2023-02-28T07:33:45;2.70;99.90
19892;DHT22;10108;50.142;8.724;2023-02-28T07:36:14;2.70;99.90
19892;DHT22;10108;50.142;8.724;2023-02-28T07:38:42;2.80;99.90
19892;DHT22;10108;50.142;8.724;2023-02-28T07:41:09;2.80;99.80
19892;DHT22;10108;50.142;8.724;2023-02-28T07:43:36;2.90;99.90
19892;DHT22;10108;50.142;8.724;2023-02-28T07:46:08;2.90;99.90
19892;DHT22;10108;50.142;8.724;2023-02-28T07:48:34;2.90;99.90
19892;DHT22;10108;50.142;8.724;2023-02-28T07:51:01;3.00;99.90
19892;DHT22;10108;50.142;8.724;2023-02-28T07:53:28;3.00;99.90
19892;DHT22;10108;50.142;8.724;2023-02-28T07:55:58;3.10;99.90
19892;DHT22;10108;50.142;8.724;2023-02-28T07:58:26;3.10;99.50
19892;DHT22;10108;50.142;8.724;2023-02-28T08:00:53;3.10;99.70
19892;DHT22;10108;50.142;8.724;2023-02-28T08:03:20;3.10;99.90
19892;DHT22;10108;50.142;8.724;2023-02-28T08:05:47;3.10;99.80
19892;DHT22;10108;50.142;8.724;2023-02-28T08:08:15;3.20;99.60
19892;DHT22;10108;50.142;8.724;2023-02-28T08:10:42;3.20;98.70
19892;DHT22;10108;50.142;8.724;2023-02-28T08:13:08;3.20;99.00
19892;DHT22;10108;50.142;8.724;2023-02-28T08:15:34;3.30;99.30
19892;DHT22;10108;50.142;8.724;2023-02-28T08:18:00;3.30;98.80
19892;DHT22;10108;50.142;8.724;2023-02-28T08:20:26;3.30;98.90
19892;DHT22;10108;50.142;8.724;2023-02-28T08:22:53;3.40;99.40
19892;DHT22;10108;50.142;8.724;2023-02-28T08:25:19;3.40;99.00
19892;DHT22;10108;50.142;8.724;2023-02-28T08:27:46;3.40;99.00
19892;DHT22;10108;50.142;8.724;2023-02-28T08:30:13;3.50;99.20
19892;DHT22;10108;50.142;8.724;2023-02-28T08:32:40;3.50;99.20
19892;DHT22;10108;50.142;8.724;2023-02-28T08:35:07;3.50;98.80
19892;DHT22;10108;50.142;8.724;2023-02-28T08:37:35;3.50;98.50
19892;DHT22;10108;50.142;8.724;2023-02-28T08:40:01;3.50;98.30
19892;DHT22;10108;50.142;8.724;2023-02-28T08:42:27;3.60;97.80
19892;DHT22;10108;50.142;8.724;2023-02-28T08:44:53;3.60;97.60
19892;DHT22;10108;50.142;8.724;2023-02-28T08:47:19;3.60;97.70
19892;DHT22;10108;50.142;8.724;2023-02-28T08:49:45;3.60;97.80
19892;DHT22;10108;50.142;8.724;2023-02-28T08:52:12;3.60;97.50
19892;DHT22;10108;50.142;8.724;2023-02-28T08:54:38;3.60;97.80
19892;DHT22;10108;50.142;8.724;2023-02-28T08:57:04;3.60;97.40
19892;DHT22;10108;50.142;8.724;2023-02-28T08:59:30;3.70;97.60
19892;DHT22;10108;50.142;8.724;2023-02-28T09:01:56;3.70;96.90
19892;DHT22;10108;50.142;8.724;2023-02-28T09:04:22;3.70;97.30
19892;DHT22;10108;50.142;8.724;2023-02-28T09:06:48;3.70;97.60
19892;DHT22;10108;50.142;8.724;2023-02-28T09:09:15;3.70;97.20
19892;DHT22;10108;50.142;8.724;2023-02-28T09:11:41;3.80;97.10
19892;DHT22;10108;50.142;8.724;2023-02-28T09:14:08;3.80;96.70
19892;DHT22;10108;50.142;8.724;2023-02-28T09:16:34;3.80;96.90
19892;DHT22;10108;50.142;8.724;2023-02-28T09:19:01;3.80;96.60
19892;DHT22;10108;50.142;8.724;2023-02-28T09:21:27;3.80;96.70
19892;DHT22;10108;50.142;8.724;2023-02-28T09:23:54;3.90;96.50
19892;DHT22;10108;50.142;8.724;2023-02-28T09:26:23;3.90;97.00
19892;DHT22;10108;50.142;8.724;2023-02-28T09:28:50;3.90;96.10
19892;DHT22;10108;50.142;8.724;2023-02-28T09:31:25;3.90;96.30
19892;DHT22;10108;50.142;8.724;2023-02-28T09:33:54;3.90;95.90
19892;DHT22;10108;50.142;8.724;2023-02-28T09:36:21;4.00;96.30
19892;DHT22;10108;50.142;8.724;2023-02-28T09:38:47;4.00;95.70
19892;DHT22;10108;50.142;8.724;2023-02-28T09:41:22;4.00;95.40
19892;DHT22;10108;50.142;8.724;2023-02-28T09:43:52;4.10;95.20
19892;DHT22;10108;50.142;8.724;2023-02-28T09:46:27;4.10;95.30
19892;DHT22;10108;50.142;8.724;2023-02-28T09:48:55;4.10;94.70
19892;DHT22;10108;50.142;8.724;2023-02-28T09:51:50;4.20;94.70
19892;DHT22;10108;50.142;8.724;2023-02-28T09:54:22;4.20;94.80
19892;DHT22;10108;50.142;8.724;2023-02-28T09:57:00;4.30;94.70
19892;DHT22;10108;50.142;8.724;2023-02-28T09:59:50;4.30;94.80
19892;DHT22;10108;50.142;8.724;2023-02-28T10:05:12;4.30;94.50
19892;DHT22;10108;50.142;8.724;2023-02-28T10:10:47;4.50;94.70
19892;DHT22;10108;50.142;8.724;2023-02-28T10:13:46;4.60;94.50
19892;DHT22;10108;50.142;8.724;2023-02-28T10:16:22;4.70;94.60
19892;DHT22;10108;50.142;8.724;2023-02-28T10:19:04;4.70;94.10
19892;DHT22;10108;50.142;8.724;2023-02-28T10:24:42;5.00;93.20
19892;DHT22;10108;50.142;8.724;2023-02-28T10:27:17;5.00;93.00
19892;DHT22;10108;50.142;8.724;2023-02-28T10:29:47;5.10;93.20
19892;DHT22;10108;50.142;8.724;2023-02-28T10:32:20;5.20;93.20
19892;DHT22;10108;50.142;8.724;2023-02-28T10:37:40;5.20;92.50
19892;DHT22;10108;50.142;8.724;2023-02-28T10:43:02;5.20;92.40
19892;DHT22;10108;50.142;8.724;2023-02-28T10:45:30;5.10;92.10
19892;DHT22;10108;50.142;8.724;2023-02-28T10:47:58;5.10;92.10
19892;DHT22;10108;50.142;8.724;2023-02-28T10:58:53;5.10;92.80
19892;DHT22;10108;50.142;8.724;2023-02-28T11:01:21;5.10;92.70
19892;DHT22;10108;50.142;8.724;2023-02-28T11:03:48;5.10;92.80
19892;DHT22;10108;50.142;8.724;2023-02-28T11:06:29;5.20;92.70
19892;DHT22;10108;50.142;8.724;2023-02-28T11:09:02;5.20;92.30
19892;DHT22;10108;50.142;8.724;2023-02-28T11:11:40;5.10;92.10
19892;DHT22;10108;50.142;8.724;2023-02-28T11:14:23;5.10;92.20
19892;DHT22;10108;50.142;8.724;2023-02-28T11:16:51;5.10;92.70
19892;DHT22;10108;50.142;8.724;2023-02-28T11:19:25;5.00;92.80
19892;DHT22;10108;50.142;8.724;2023-02-28T11:22:02;5.00;92.50
19892;DHT22;10108;50.142;8.724;2023-02-28T11:24:37;5.00;92.70
19892;DHT22;10108;50.142;8.724;2023-02-28T11:29:57;5.10;92.40
19892;DHT22;10108;50.142;8.724;2023-02-28T11:32:26;5.00;92.60
19892;DHT22;10108;50.142;8.724;2023-02-28T11:35:27;5.00;92.50
19892;DHT22;10108;50.142;8.724;2023-02-28T11:37:48;5.00;92.40
19892;DHT22;10108;50.142;8.724;2023-02-28T11:40:17;5.00;92.70
19892;DHT22;10108;50.142;8.724;2023-02-28T11:42:53;4.90;92.30
19892;DHT22;10108;50.142;8.724;2023-02-28T11:55:07;5.10;92.80
19892;DHT22;10108;50.142;8.724;2023-02-28T11:57:59;5.10;92.60
19892;DHT22;10108;50.142;8.724;2023-02-28T12:00:42;5.20;92.20
19892;DHT22;10108;50.142;8.724;2023-02-28T12:05:46;5.20;92.20
19892;DHT22;10108;50.142;8.724;2023-02-28T12:14:45;5.30;92.40
19892;DHT22;10108;50.142;8.724;2023-02-28T12:20:08;5.40;92.30
19892;DHT22;10108;50.142;8.724;2023-02-28T12:27:56;5.40;92.20
19892;DHT22;10108;50.142;8.724;2023-02-28T12:30:27;5.50;92.00
19892;DHT22;10108;50.142;8.724;2023-02-28T12:38:24;5.60;92.60
19892;DHT22;10108;50.142;8.724;2023-02-28T12:41:02;5.60;92.20
19892;DHT22;10108;50.142;8.724;2023-02-28T12:43:40;5.70;91.80
19892;DHT22;10108;50.142;8.724;2023-02-28T12:46:37;5.80;92.50
19892;DHT22;10108;50.142;8.724;2023-02-28T12:49:15;5.80;92.70
19892;DHT22;10108;50.142;8.724;2023-02-28T12:51:43;5.90;93.20
19892;DHT22;10108;50.142;8.724;2023-02-28T12:54:18;5.90;92.90
19892;DHT22;10108;50.142;8.724;2023-02-28T12:57:11;5.80;92.50
19892;DHT22;10108;50.142;8.724;2023-02-28T13:00:00;5.80;92.60
19892;DHT22;10108;50.142;8.724;2023-02-28T13:02:56;5.80;92.50
19892;DHT22;10108;50.142;8.724;2023-02-28T13:14:26;5.90;93.30
19892;DHT22;10108;50.142;8.724;2023-02-28T13:17:01;5.90;93.10
19892;DHT22;10108;50.142;8.724;2023-02-28T13:19:33;5.90;93.40
19892;DHT22;10108;50.142;8.724;2023-02-28T13:22:01;6.00;92.70
19892;DHT22;10108;50.142;8.724;2023-02-28T13:24:53;6.00;93.10
19892;DHT22;10108;50.142;8.724;2023-02-28T13:27:32;6.00;93.50
19892;DHT22;10108;50.142;8.724;2023-02-28T13:29:59;5.90;93.40
19892;DHT22;10108;50.142;8.724;2023-02-28T13:39:45;5.90;92.60
19892;DHT22;10108;50.142;8.724;2023-02-28T13:47:59;5.90;92.50
19892;DHT22;10108;50.142;8.724;2023-02-28T13:58:46;5.90;93.10
19892;DHT22;10108;50.142;8.724;2023-02-28T14:06:33;6.00;92.60
19892;DHT22;10108;50.142;8.724;2023-02-28T14:09:06;6.00;92.60
19892;DHT22;10108;50.142;8.724;2023-02-28T14:11:44;6.00;92.90
19892;DHT22;10108;50.142;8.724;2023-02-28T14:17:22;6.00;92.90
19892;DHT22;10108;50.142;8.724;2023-02-28T14:19:50;6.00;92.40
19892;DHT22;10108;50.142;8.724;2023-02-28T14:22:45;6.00;93.10
19892;DHT22;10108;50.142;8.724;2023-02-28T14:25:40;6.00;92.40
19892;DHT22;10108;50.142;8.724;2023-02-28T14:28:23;6.10;92.70
19892;DHT22;10108;50.142;8.724;2023-02-28T14:31:09;6.10;92.20
19892;DHT22;10108;50.142;8.724;2023-02-28T14:36:33;6.10;91.70
19892;DHT22;10108;50.142;8.724;2023-02-28T14:41:38;6.10;93.20
19892;DHT22;10108;50.142;8.724;2023-02-28T14:44:21;6.00;92.90
19892;DHT22;10108;50.142;8.724;2023-02-28T14:46:53;6.10;93.00
19892;DHT22;10108;50.142;8.724;2023-02-28T14:49:28;6.10;92.90
19892;DHT22;10108;50.142;8.724;2023-02-28T14:54:36;6.10;93.20
19892;DHT22;10108;50.142;8.724;2023-02-28T14:57:02;6.10;93.20
19892;DHT22;10108;50.142;8.724;2023-02-28T14:59:35;6.10;93.10
19892;DHT22;10108;50.142;8.724;2023-02-28T15:02:34;6.10;93.10
19892;DHT22;10108;50.142;8.724;2023-02-28T15:05:24;6.10;93.10
19892;DHT22;10108;50.142;8.724;2023-02-28T15:07:59;6.10;93.20
19892;DHT22;10108;50.142;8.724;2023-02-28T15:10:27;6.10;93.30
19892;DHT22;10108;50.142;8.724;2023-02-28T15:12:58;6.10;93.00
19892;DHT22;10108;50.142;8.724;2023-02-28T15:20:48;6.10;93.30
19892;DHT22;10108;50.142;8.724;2023-02-28T15:23:16;6.10;93.80
19892;DHT22;10108;50.142;8.724;2023-02-28T15:25:43;6.10;92.90
19892;DHT22;10108;50.142;8.724;2023-02-28T15:28:16;6.00;93.00
19892;DHT22;10108;50.142;8.724;2023-02-28T15:30:56;6.10;93.00
19892;DHT22;10108;50.142;8.724;2023-02-28T15:33:27;6.10;93.40
19892;DHT22;10108;50.142;8.724;2023-02-28T15:36:15;6.10;93.50
19892;DHT22;10108;50.142;8.724;2023-02-28T15:38:43;6.10;93.80
19892;DHT22;10108;50.142;8.724;2023-02-28T15:41:42;6.00;93.80
19892;DHT22;10108;50.142;8.724;2023-02-28T15:44:34;6.00;93.60
19892;DHT22;10108;50.142;8.724;2023-02-28T15:47:14;6.00;93.70
19892;DHT22;10108;50.142;8.724;2023-02-28T15:50:00;6.00;93.50
19892;DHT22;10108;50.142;8.724;2023-02-28T15:52:42;6.00;93.30
19892;DHT22;10108;50.142;8.724;2023-02-28T15:55:29;6.00;93.20
19892;DHT22;10108;50.142;8.724;2023-02-28T15:57:59;5.90;93.60
19892;DHT22;10108;50.142;8.724;2023-02-28T16:00:28;5.90;93.50
19892;DHT22;10108;50.142;8.724;2023-02-28T16:02:54;5.90;93.90
19892;DHT22;10108;50.142;8.724;2023-02-28T16:05:31;5.90;94.20
19892;DHT22;10108;50.142;8.724;2023-02-28T16:08:00;5.90;94.30
19892;DHT22;10108;50.142;8.724;2023-02-28T16:10:27;5.90;94.70
19892;DHT22;10108;50.142;8.724;2023-02-28T16:12:55;5.90;94.20
19892;DHT22;10108;50.142;8.724;2023-02-28T16:15:27;5.90;94.30
19892;DHT22;10108;50.142;8.724;2023-02-28T16:17:55;5.90;94.40
19892;DHT22;10108;50.142;8.724;2023-02-28T16:20:27;5.80;94.00
19892;DHT22;10108;50.142;8.724;2023-02-28T16:22:54;5.80;94.40
19892;DHT22;10108;50.142;8.724;2023-02-28T16:25:23;5.80;94.20
19892;DHT22;10108;50.142;8.724;2023-02-28T16:27:52;5.70;94.00
19892;DHT22;10108;50.142;8.724;2023-02-28T16:30:25;5.70;94.30
19892;DHT22;10108;50.142;8.724;2023-02-28T16:32:54;5.70;94.40
19892;DHT22;10108;50.142;8.724;2023-02-28T16:35:21;5.70;94.80
19892;DHT22;10108;50.142;8.724;2023-02-28T16:37:47;5.60;94.80
19892;DHT22;10108;50.142;8.724;2023-02-28T16:40:24;5.60;94.60
19892;DHT22;10108;50.142;8.724;2023-02-28T16:42:53;5.60;94.40
19892;DHT22;10108;50.142;8.724;2023-02-28T16:45:25;5.50;94.40
19892;DHT22;10108;50.142;8.724;2023-02-28T16:47:52;5.50;93.90
19892;DHT22;10108;50.142;8.724;2023-02-28T16:50:24;5.50;94.10
19892;DHT22;10108;50.142;8.724;2023-02-28T16:52:51;5.50;94.40
19892;DHT22;10108;50.142;8.724;2023-02-28T16:55:21;5.40;94.40
19892;DHT22;10108;50.142;8.724;2023-02-28T16:57:52;5.40;94.80
19892;DHT22;10108;50.142;8.724;2023-02-28T17:00:19;5.40;94.70
19892;DHT22;10108;50.142;8.724;2023-02-28T17:02:45;5.40;95.00
19892;DHT22;10108;50.142;8.724;2023-02-28T17:05:12;5.30;94.60
19892;DHT22;10108;50.142;8.724;2023-02-28T17:07:39;5.30;94.80
19892;DHT22;10108;50.142;8.724;2023-02-28T17:10:15;5.30;94.40
19892;DHT22;10108;50.142;8.724;2023-02-28T17:12:42;5.20;94.80
19892;DHT22;10108;50.142;8.724;2023-02-28T17:15:11;5.20;94.80
19892;DHT22;10108;50.142;8.724;2023-02-28T17:17:37;5.10;94.60
19892;DHT22;10108;50.142;8.724;2023-02-28T17:20:04;5.10;94.80
19892;DHT22;10108;50.142;8.724;2023-02-28T17:22:32;5.10;95.20
19892;DHT22;10108;50.142;8.724;2023-02-28T17:24:58;5.10;95.30
19892;DHT22;10108;50.142;8.724;2023-02-28T17:27:25;5.10;95.40
19892;DHT22;10108;50.142;8.724;2023-02-28T17:29:51;5.10;95.60
19892;DHT22;10108;50.142;8.724;2023-02-28T17:32:17;5.10;95.00
19892;DHT22;10108;50.142;8.724;2023-02-28T17:34:43;5.00;94.60
19892;DHT22;10108;50.142;8.724;2023-02-28T17:37:11;5.00;94.10
19892;DHT22;10108;50.142;8.724;2023-02-28T17:39:37;5.00;94.40
19892;DHT22;10108;50.142;8.724;2023-02-28T17:42:03;4.90;94.10
19892;DHT22;10108;50.142;8.724;2023-02-28T17:44:29;4.90;93.90
19892;DHT22;10108;50.142;8.724;2023-02-28T17:46:55;4.90;94.10
19892;DHT22;10108;50.142;8.724;2023-02-28T17:49:22;4.90;94.40
19892;DHT22;10108;50.142;8.724;2023-02-28T17:51:48;4.90;94.70
19892;DHT22;10108;50.142;8.724;2023-02-28T17:54:16;4.90;94.70
19892;DHT22;10108;50.142;8.724;2023-02-28T17:56:42;4.90;94.50
19892;DHT22;10108;50.142;8.724;2023-02-28T17:59:12;4.80;93.80
19892;DHT22;10108;50.142;8.724;2023-02-28T18:01:39;4.80;93.80
19892;DHT22;10108;50.142;8.724;2023-02-28T18:04:05;4.80;94.10
19892;DHT22;10108;50.142;8.724;2023-02-28T18:06:38;4.80;93.60
19892;DHT22;10108;50.142;8.724;2023-02-28T18:09:16;4.80;93.50
19892;DHT22;10108;50.142;8.724;2023-02-28T18:11:42;4.80;93.80
19892;DHT22;10108;50.142;8.724;2023-02-28T18:14:14;4.70;93.50
19892;DHT22;10108;50.142;8.724;2023-02-28T18:16:41;4.70;93.90
19892;DHT22;10108;50.142;8.724;2023-02-28T18:19:08;4.70;93.60
19892;DHT22;10108;50.142;8.724;2023-02-28T18:21:40;4.60;93.70
19892;DHT22;10108;50.142;8.724;2023-02-28T18:24:07;4.60;94.10
19892;DHT22;10108;50.142;8.724;2023-02-28T18:26:33;4.60;93.90
19892;DHT22;10108;50.142;8.724;2023-02-28T18:29:00;4.60;93.90
19892;DHT22;10108;50.142;8.724;2023-02-28T18:31:27;4.50;94.10
19892;DHT22;10108;50.142;8.724;2023-02-28T18:33:53;4.50;94.10
19892;DHT22;10108;50.142;8.724;2023-02-28T18:36:20;4.50;94.40
19892;DHT22;10108;50.142;8.724;2023-02-28T18:38:47;4.50;94.50